createdAt,value
2018-11-11T00:01:50.011Z,97.76
2018-11-11T00:04:18.491Z,97.32
2018-11-11T00:06:47.514Z,97.51
2018-11-11T00:09:16.078Z,97.90
2018-11-11T00:11:44.585Z,97.41
2018-11-11T00:14:13.212Z,97.34
2018-11-11T00:16:41.977Z,97.72
2018-11-11T00:19:10.611Z,97.36
2018-11-11T00:21:39.190Z,97.42
2018-11-11T00:24:08.438Z,98.11
2018-11-11T00:26:36.908Z,97.59
2018-11-11T00:29:06.337Z,97.72
2018-11-11T00:31:35.953Z,97.05
2018-11-11T00:34:05.250Z,96.84
2018-11-11T00:36:33.767Z,96.91
2018-11-11T00:39:03.485Z,97.41
2018-11-11T00:41:32.108Z,98.63
2018-11-11T00:44:00.624Z,98.99
2018-11-11T00:46:29.137Z,97.67
2018-11-11T00:48:57.600Z,97.55
2018-11-11T00:51:26.141Z,97.96
2018-11-11T00:53:54.655Z,98.16
2018-11-11T00:56:23.183Z,97.69
2018-11-11T00:58:51.631Z,97.84
2018-11-11T01:01:20.202Z,96.90
2018-11-11T01:03:48.626Z,97.15
2018-11-11T01:06:17.088Z,97.35
2018-11-11T01:08:45.616Z,97.18
2018-11-11T01:11:14.124Z,97.88
2018-11-11T01:13:42.738Z,97.35
2018-11-11T01:16:11.254Z,97.37
2018-11-11T01:18:39.740Z,96.15
2018-11-11T01:21:08.252Z,96.06
2018-11-11T01:23:36.700Z,96.87
2018-11-11T01:26:05.207Z,96.96
2018-11-11T01:28:33.693Z,96.60
2018-11-11T01:31:02.285Z,96.68
2018-11-11T01:33:31.761Z,96.57
2018-11-11T01:36:01.288Z,96.64
2018-11-11T01:38:30.548Z,96.84
2018-11-11T01:40:59.009Z,96.72
2018-11-11T01:43:27.493Z,96.66
2018-11-11T01:45:56.016Z,96.47
2018-11-11T01:48:24.476Z,96.15
2018-11-11T01:50:52.978Z,96.28
2018-11-11T01:53:22.434Z,96.80
2018-11-11T01:55:50.996Z,96.48
2018-11-11T01:58:19.477Z,96.45
2018-11-11T02:00:47.914Z,96.39
2018-11-11T02:03:16.331Z,97.73
2018-11-11T02:05:44.781Z,97.45
2018-11-11T02:08:13.244Z,97.11
2018-11-11T02:10:41.789Z,97.13
2018-11-11T02:13:10.264Z,98.06
2018-11-11T02:15:38.752Z,97.90
2018-11-11T02:18:07.218Z,97.75
2018-11-11T02:20:35.647Z,97.40
2018-11-11T02:23:04.118Z,97.46
2018-11-11T02:25:32.591Z,98.14
2018-11-11T02:28:01.092Z,97.50
2018-11-11T02:30:29.522Z,97.73
2018-11-11T02:32:58.034Z,97.77
2018-11-11T02:35:26.510Z,98.02
2018-11-11T02:37:54.998Z,97.58
2018-11-11T02:40:23.443Z,97.42
2018-11-11T02:42:51.853Z,97.25
2018-11-11T02:45:20.847Z,97.06
2018-11-11T02:47:49.880Z,96.73
2018-11-11T02:50:19.309Z,97.02
2018-11-11T02:52:48.155Z,96.61
2018-11-11T02:55:17.115Z,96.33
2018-11-11T02:57:46.331Z,96.49
2018-11-11T03:00:15.994Z,95.99
2018-11-11T03:02:45.151Z,96.72
2018-11-11T03:05:14.861Z,96.31
2018-11-11T03:07:43.343Z,96.17
2018-11-11T03:10:12.695Z,96.39
2018-11-11T03:12:41.400Z,95.92
2018-11-11T03:15:10.992Z,96.82
2018-11-11T03:17:39.611Z,96.24
2018-11-11T03:20:08.968Z,96.60
2018-11-11T03:22:37.419Z,96.07
2018-11-11T03:25:07.423Z,95.95
2018-11-11T03:27:35.900Z,95.44
2018-11-11T03:30:04.853Z,96.44
2018-11-11T03:32:33.306Z,96.82
2018-11-11T03:35:01.757Z,96.30
2018-11-11T03:37:30.175Z,96.36
2018-11-11T03:39:58.604Z,96.02
2018-11-11T03:42:27.101Z,95.86
2018-11-11T03:44:55.543Z,95.05
2018-11-11T03:47:24.021Z,96.03
2018-11-11T03:49:52.519Z,96.48
2018-11-11T03:52:20.981Z,95.47
2018-11-11T03:54:49.401Z,95.86
2018-11-11T03:57:17.964Z,95.23
2018-11-11T03:59:46.429Z,95.85
2018-11-11T04:02:14.901Z,95.61
2018-11-11T04:04:43.484Z,95.59
2018-11-11T04:07:11.943Z,95.99
2018-11-11T04:09:40.969Z,95.81
2018-11-11T04:12:09.457Z,96.10
2018-11-11T04:14:37.972Z,96.76
2018-11-11T04:17:06.445Z,96.84
2018-11-11T04:19:34.958Z,96.60
2018-11-11T04:22:08.620Z,95.82
2018-11-11T04:24:37.083Z,97.06
2018-11-11T04:27:05.729Z,96.26
2018-11-11T04:29:34.241Z,96.57
2018-11-11T04:32:02.747Z,95.95
2018-11-11T04:34:31.213Z,95.68
2018-11-11T04:37:00.025Z,95.69
2018-11-11T04:39:28.597Z,95.92
2018-11-11T04:41:57.874Z,96.86
2018-11-11T04:44:26.362Z,95.79
2018-11-11T04:46:55.290Z,95.93
2018-11-11T04:49:24.006Z,96.47
2018-11-11T04:51:52.413Z,95.96
2018-11-11T04:54:25.714Z,96.08
2018-11-11T04:56:54.242Z,96.66
2018-11-11T04:59:22.761Z,96.48
2018-11-11T05:01:51.205Z,95.92
2018-11-11T05:04:19.776Z,96.38
2018-11-11T05:06:48.738Z,96.14
2018-11-11T05:09:17.235Z,96.14
2018-11-11T05:11:45.696Z,96.22
2018-11-11T05:14:14.211Z,96.81
2018-11-11T05:16:42.704Z,96.03
2018-11-11T05:19:11.676Z,96.39
2018-11-11T05:21:40.307Z,96.13
2018-11-11T05:24:08.759Z,96.09
2018-11-11T05:26:38.118Z,96.09
2018-11-11T05:29:06.646Z,95.98
2018-11-11T05:31:35.075Z,95.78
2018-11-11T05:34:03.560Z,94.92
2018-11-11T05:36:32.087Z,94.72
2018-11-11T05:39:00.511Z,93.83
2018-11-11T05:41:29.011Z,93.99
2018-11-11T05:43:57.523Z,95.05
2018-11-11T05:46:27.034Z,94.87
2018-11-11T05:48:55.510Z,95.54
2018-11-11T05:51:23.927Z,95.11
2018-11-11T05:53:52.436Z,94.65
2018-11-11T05:56:20.925Z,94.77
2018-11-11T05:58:50.392Z,95.42
2018-11-11T06:01:18.918Z,95.18
2018-11-11T06:03:47.427Z,94.27
2018-11-11T06:06:15.909Z,94.00
2018-11-11T06:08:44.379Z,95.45
2018-11-11T06:11:12.832Z,95.21
2018-11-11T06:13:41.674Z,95.02
2018-11-11T06:16:10.147Z,94.82
2018-11-11T06:18:38.579Z,94.85
2018-11-11T06:21:07.091Z,94.48
2018-11-11T06:23:35.558Z,93.79
2018-11-11T06:26:04.067Z,94.21
2018-11-11T06:28:32.572Z,95.09
2018-11-11T06:31:01.063Z,94.68
2018-11-11T06:33:29.543Z,94.24
2018-11-11T06:35:58.045Z,94.43
2018-11-11T06:38:26.603Z,94.88
2018-11-11T06:40:55.096Z,95.28
2018-11-11T06:43:23.544Z,94.73
2018-11-11T06:45:52.051Z,94.28
2018-11-11T06:48:20.547Z,95.36
2018-11-11T06:50:49.043Z,94.85
2018-11-11T06:53:18.499Z,95.63
2018-11-11T06:55:46.978Z,95.41
2018-11-11T06:58:15.477Z,95.27
2018-11-11T07:00:44.022Z,95.55
2018-11-11T07:03:23.381Z,94.97
2018-11-11T07:05:52.734Z,94.33
2018-11-11T07:08:21.192Z,94.68
2018-11-11T07:10:49.712Z,94.53
2018-11-11T07:13:18.134Z,94.00
2018-11-11T07:15:46.768Z,94.25
2018-11-11T07:18:15.291Z,93.99
2018-11-11T07:20:43.830Z,93.87
2018-11-11T07:23:12.270Z,93.87
2018-11-11T07:25:40.986Z,94.33
2018-11-11T07:28:09.535Z,94.11
2018-11-11T07:30:38.041Z,93.60
2018-11-11T07:33:06.610Z,93.33
2018-11-11T07:35:35.114Z,92.36
2018-11-11T07:38:03.615Z,92.23
2018-11-11T07:40:32.066Z,91.21
2018-11-11T07:43:00.623Z,91.27
2018-11-11T07:45:29.089Z,91.20
2018-11-11T07:47:57.587Z,91.07
2018-11-11T07:50:26.098Z,90.28
2018-11-11T07:52:54.580Z,88.78
2018-11-11T07:55:23.056Z,88.33
2018-11-11T07:57:51.752Z,87.39
2018-11-11T08:00:20.220Z,88.65
2018-11-11T08:02:48.666Z,89.11
2018-11-11T08:05:17.187Z,88.23
2018-11-11T08:07:45.611Z,87.64
2018-11-11T08:10:25.180Z,88.61
2018-11-11T08:12:53.747Z,88.09
2018-11-11T08:15:25.625Z,88.56
2018-11-11T08:17:55.295Z,87.99
2018-11-11T08:20:23.759Z,86.34
2018-11-11T08:22:52.614Z,85.79
2018-11-11T08:25:21.841Z,85.33
2018-11-11T08:27:50.320Z,86.87
2018-11-11T08:30:18.787Z,85.92
2018-11-11T08:32:47.249Z,84.82
2018-11-11T08:35:15.667Z,84.34
2018-11-11T08:37:45.183Z,85.95
2018-11-11T08:40:13.885Z,84.65
2018-11-11T08:42:42.576Z,84.10
2018-11-11T08:45:13.015Z,82.95
2018-11-11T08:47:42.057Z,83.55
2018-11-11T08:50:11.641Z,83.11
2018-11-11T08:52:40.436Z,83.33
2018-11-11T08:55:08.985Z,82.92
2018-11-11T08:57:37.568Z,84.38
2018-11-11T09:00:10.100Z,82.87
2018-11-11T09:02:38.942Z,80.86
2018-11-11T09:05:07.779Z,82.80
2018-11-11T09:07:36.475Z,82.58
2018-11-11T09:10:05.869Z,83.61
2018-11-11T09:12:34.562Z,82.84
2018-11-11T09:15:03.064Z,83.01
2018-11-11T09:17:31.652Z,82.63
2018-11-11T09:20:00.189Z,82.81
2018-11-11T09:22:29.412Z,81.19
2018-11-11T09:24:58.819Z,82.40
2018-11-11T09:27:27.512Z,80.57
2018-11-11T09:29:56.030Z,80.35
2018-11-11T09:32:24.528Z,79.85
2018-11-11T09:34:52.979Z,79.27
2018-11-11T09:37:21.555Z,78.94
2018-11-11T09:39:49.983Z,77.68
2018-11-11T09:42:18.813Z,78.77
2018-11-11T09:44:48.354Z,77.95
2018-11-11T09:47:16.767Z,77.19
2018-11-11T09:49:45.248Z,77.03
2018-11-11T09:52:13.660Z,77.83
2018-11-11T09:54:42.107Z,77.12
2018-11-11T09:57:10.658Z,75.65
2018-11-11T09:59:41.137Z,75.94
2018-11-11T10:02:09.739Z,76.12
2018-11-11T10:04:44.387Z,73.30
2018-11-11T10:07:18.038Z,73.34
2018-11-11T10:09:56.125Z,72.91
2018-11-11T10:12:33.028Z,72.89
2018-11-11T10:15:05.935Z,74.34
2018-11-11T10:17:39.733Z,73.36
2018-11-11T10:20:14.309Z,72.28
2018-11-11T10:23:47.278Z,72.16
2018-11-11T10:26:22.606Z,73.11
2018-11-11T10:28:56.416Z,73.91
2018-11-11T10:32:28.534Z,71.31
2018-11-11T10:35:03.256Z,71.47
2018-11-11T10:37:43.547Z,71.97
2018-11-11T10:40:16.223Z,71.14
2018-11-11T10:42:49.118Z,71.77
2018-11-11T10:45:21.987Z,71.19
2018-11-11T10:47:58.205Z,70.12
2018-11-11T10:50:30.892Z,70.21
2018-11-11T10:52:59.845Z,70.49
2018-11-11T10:55:28.395Z,69.32
2018-11-11T10:57:57.407Z,69.87
2018-11-11T11:00:28.016Z,69.54
2018-11-11T11:02:57.718Z,68.38
2018-11-11T11:05:26.195Z,67.11
2018-11-11T11:07:54.988Z,67.61
2018-11-11T11:10:24.625Z,66.67
2018-11-11T11:12:53.563Z,65.48
2018-11-11T11:15:22.049Z,67.51
2018-11-11T11:17:50.995Z,66.65
2018-11-11T11:20:19.448Z,67.10
2018-11-11T11:22:47.941Z,65.53
2018-11-11T11:25:16.486Z,66.46
2018-11-11T11:27:45.157Z,64.85
2018-11-11T11:30:14.539Z,66.28
2018-11-11T11:32:43.043Z,66.58
2018-11-11T11:35:13.019Z,64.09
2018-11-11T11:37:41.575Z,63.68
2018-11-11T11:40:10.980Z,63.72
2018-11-11T11:42:40.107Z,61.35
2018-11-11T11:45:09.948Z,62.64
2018-11-11T11:47:38.452Z,62.28
2018-11-11T11:50:08.589Z,63.66
2018-11-11T11:52:37.252Z,65.56
2018-11-11T11:55:06.161Z,64.27
2018-11-11T11:57:34.734Z,65.23
2018-11-11T12:00:03.252Z,64.04
2018-11-11T12:02:34.279Z,64.96
2018-11-11T12:05:02.811Z,64.83
2018-11-11T12:07:31.327Z,65.87
2018-11-11T12:09:59.851Z,65.49
2018-11-11T12:12:28.631Z,65.21
2018-11-11T12:14:57.080Z,63.81
2018-11-11T12:17:25.608Z,65.78
2018-11-11T12:19:54.064Z,64.55
2018-11-11T12:22:23.207Z,65.05
2018-11-11T12:24:51.641Z,66.55
2018-11-11T12:27:20.075Z,67.68
2018-11-11T12:29:48.565Z,67.66
2018-11-11T12:32:16.998Z,66.78
2018-11-11T12:34:45.475Z,67.01
2018-11-11T12:37:13.944Z,67.18
2018-11-11T12:39:42.610Z,67.05
2018-11-11T12:42:10.988Z,65.97
2018-11-11T12:44:39.466Z,65.75
2018-11-11T12:47:07.935Z,64.99
2018-11-11T12:49:36.378Z,63.96
2018-11-11T12:52:04.879Z,65.05
2018-11-11T12:54:33.360Z,65.24
2018-11-11T12:57:03.834Z,63.70
2018-11-11T12:59:32.318Z,65.55
2018-11-11T13:02:01.496Z,64.56
2018-11-11T13:04:29.963Z,64.57
2018-11-11T13:06:58.611Z,63.96
2018-11-11T13:09:27.076Z,64.35
2018-11-11T13:11:55.655Z,64.36
2018-11-11T13:14:24.202Z,64.97
2018-11-11T13:16:53.446Z,64.84
2018-11-11T13:19:21.968Z,65.16
2018-11-11T13:21:50.833Z,64.61
2018-11-11T13:24:20.352Z,65.96
2018-11-11T13:26:48.799Z,65.93
2018-11-11T13:29:17.259Z,65.02
2018-11-11T13:31:45.780Z,65.60
2018-11-11T13:34:14.238Z,65.85
2018-11-11T13:36:42.759Z,66.11
2018-11-11T13:39:13.055Z,65.93
2018-11-11T13:41:42.219Z,65.99
2018-11-11T13:44:10.642Z,65.35
2018-11-11T13:46:39.493Z,66.20
2018-11-11T13:49:08.065Z,65.52
2018-11-11T13:51:37.605Z,65.65
2018-11-11T13:54:06.528Z,65.72
2018-11-11T13:56:35.081Z,66.41
2018-11-11T13:59:03.634Z,66.18
2018-11-11T14:01:32.732Z,65.99
2018-11-11T14:04:01.184Z,66.38
2018-11-11T14:06:29.634Z,64.29
2018-11-11T14:08:58.109Z,65.69
2018-11-11T14:11:26.598Z,65.89
2018-11-11T14:13:55.358Z,65.43
2018-11-11T14:16:23.827Z,65.41
2018-11-11T14:18:53.401Z,65.47
2018-11-11T14:21:21.811Z,66.70
2018-11-11T14:23:50.262Z,67.04
2018-11-11T14:26:18.828Z,67.76
2018-11-11T14:28:47.732Z,68.18
2018-11-11T14:31:16.196Z,69.67
2018-11-11T14:33:44.684Z,69.72
2018-11-11T14:36:13.220Z,70.71
2018-11-11T14:38:42.551Z,71.15
2018-11-11T14:41:11.053Z,71.37
2018-11-11T14:43:39.567Z,71.48
2018-11-11T14:46:08.100Z,71.82
2018-11-11T14:48:37.231Z,71.34
2018-11-11T14:51:06.115Z,71.64
2018-11-11T14:53:34.650Z,71.56
2018-11-11T14:56:03.195Z,72.80
2018-11-11T14:58:31.928Z,73.84
2018-11-11T15:01:00.323Z,74.52
2018-11-11T15:03:28.926Z,74.41
2018-11-11T15:05:57.383Z,74.37
2018-11-11T15:08:25.775Z,74.11
2018-11-11T15:10:54.273Z,74.71
2018-11-11T15:13:22.748Z,75.46
2018-11-11T15:15:51.431Z,75.90
2018-11-11T15:18:19.937Z,75.84
2018-11-11T15:20:48.574Z,76.39
2018-11-11T15:23:16.971Z,76.86
2018-11-11T15:25:45.475Z,76.15
2018-11-11T15:28:13.919Z,76.51
2018-11-11T15:30:42.525Z,76.92
2018-11-11T15:33:10.934Z,77.36
2018-11-11T15:35:39.341Z,76.45
2018-11-11T15:38:07.794Z,76.92
2018-11-11T15:40:37.491Z,77.63
2018-11-11T15:43:06.828Z,78.09
2018-11-11T15:45:35.852Z,78.55
2018-11-11T15:48:05.846Z,78.55
2018-11-11T15:50:35.117Z,78.97
2018-11-11T15:53:06.839Z,79.64
2018-11-11T15:55:36.491Z,79.95
2018-11-11T15:58:05.550Z,80.59
2018-11-11T16:00:35.545Z,79.95
2018-11-11T16:03:04.108Z,79.91
2018-11-11T16:05:32.553Z,79.82
2018-11-11T16:08:01.640Z,80.08
2018-11-11T16:10:31.131Z,80.69
2018-11-11T16:12:59.567Z,80.96
2018-11-11T16:15:33.790Z,81.39
2018-11-11T16:18:04.771Z,81.46
2018-11-11T16:20:33.859Z,81.48
2018-11-11T16:23:03.214Z,81.57
2018-11-11T16:25:31.942Z,82.00
2018-11-11T16:28:00.516Z,82.42
2018-11-11T16:30:30.333Z,83.01
2018-11-11T16:32:59.425Z,84.16
2018-11-11T16:35:28.643Z,84.55
2018-11-11T16:37:57.617Z,84.71
2018-11-11T16:40:27.420Z,83.81
2018-11-11T16:42:56.131Z,84.68
2018-11-11T16:45:25.895Z,84.15
2018-11-11T16:47:54.591Z,83.58
2018-11-11T16:50:26.587Z,85.22
2018-11-11T16:52:55.956Z,84.96
2018-11-11T16:55:25.805Z,85.32
2018-11-11T16:57:54.990Z,85.66
2018-11-11T17:00:25.627Z,86.14
2018-11-11T17:02:55.429Z,86.54
2018-11-11T17:05:25.911Z,87.35
2018-11-11T17:07:55.666Z,87.50
2018-11-11T17:10:27.110Z,88.16
2018-11-11T17:12:56.715Z,87.71
2018-11-11T17:15:26.929Z,88.43
2018-11-11T17:17:56.259Z,87.64
2018-11-11T17:20:26.598Z,88.41
2018-11-11T17:22:57.040Z,88.44
2018-11-11T17:25:27.047Z,89.03
2018-11-11T17:27:56.353Z,89.35
2018-11-11T17:30:27.683Z,89.58
2018-11-11T17:32:57.520Z,90.25
2018-11-11T17:35:26.935Z,89.04
2018-11-11T17:37:56.276Z,89.37
2018-11-11T17:40:27.802Z,90.17
2018-11-11T17:43:02.985Z,90.27
2018-11-11T17:45:31.473Z,90.04
2018-11-11T17:48:00.992Z,90.44
2018-11-11T17:50:30.646Z,90.34
2018-11-11T17:53:00.077Z,90.33
2018-11-11T17:55:29.461Z,90.99
2018-11-11T17:57:57.814Z,90.23
2018-11-11T18:00:27.317Z,92.18
2018-11-11T18:02:59.013Z,92.54
2018-11-11T18:05:28.615Z,91.38
2018-11-11T18:07:57.198Z,91.65
2018-11-11T18:10:26.099Z,91.66
2018-11-11T18:12:56.498Z,91.87
2018-11-11T18:15:27.412Z,93.47
2018-11-11T18:17:56.152Z,92.93
2018-11-11T18:20:27.078Z,92.69
2018-11-11T18:22:56.299Z,93.79
2018-11-11T18:25:24.791Z,92.87
2018-11-11T18:27:55.943Z,93.14
2018-11-11T18:30:27.079Z,92.36
2018-11-11T18:32:55.566Z,93.21
2018-11-11T18:35:24.079Z,92.96
2018-11-11T18:37:52.719Z,93.18
2018-11-11T18:40:23.762Z,92.37
2018-11-11T18:42:52.984Z,92.40
2018-11-11T18:45:22.911Z,93.62
2018-11-11T18:47:51.834Z,95.19
2018-11-11T18:50:25.764Z,94.43
2018-11-11T18:52:54.249Z,95.59
2018-11-11T18:55:22.755Z,94.62
2018-11-11T18:57:51.305Z,94.17
2018-11-11T19:00:21.223Z,93.25
2018-11-11T19:02:51.220Z,93.41
2018-11-11T19:05:20.520Z,92.80
2018-11-11T19:07:49.335Z,92.77
2018-11-11T19:10:19.316Z,93.19
2018-11-11T19:12:48.623Z,93.35
2018-11-11T19:15:18.088Z,93.25
2018-11-11T19:17:47.361Z,92.81
2018-11-11T19:20:16.993Z,93.35
2018-11-11T19:22:45.450Z,93.05
2018-11-11T19:25:16.745Z,92.48
2018-11-11T19:27:46.546Z,92.99
2018-11-11T19:30:15.995Z,92.91
2018-11-11T19:32:45.056Z,93.85
2018-11-11T19:35:14.489Z,94.49
2018-11-11T19:37:43.673Z,95.14
2018-11-11T19:40:19.503Z,94.66
2018-11-11T19:42:49.283Z,95.15
2018-11-11T19:45:19.995Z,95.64
2018-11-11T19:47:48.848Z,94.32
2018-11-11T19:50:18.963Z,94.21
2018-11-11T19:52:48.592Z,94.75
2018-11-11T19:55:17.907Z,94.28
2018-11-11T19:57:46.328Z,94.54
2018-11-11T20:00:17.075Z,94.32
2018-11-11T20:02:46.811Z,93.80
2018-11-11T20:05:15.933Z,95.18
2018-11-11T20:07:46.452Z,92.80
2018-11-11T20:10:16.050Z,93.30
2018-11-11T20:12:45.809Z,93.12
2018-11-11T20:15:16.733Z,92.87
2018-11-11T20:17:47.539Z,93.25
2018-11-11T20:20:25.088Z,92.80
2018-11-11T20:22:53.538Z,92.55
2018-11-11T20:25:22.365Z,92.83
2018-11-11T20:27:50.921Z,93.26
2018-11-11T20:30:22.920Z,92.72
2018-11-11T20:32:51.503Z,92.75
2018-11-11T20:35:21.291Z,92.94
2018-11-11T20:37:49.804Z,92.20
2018-11-11T20:40:19.787Z,92.74
2018-11-11T20:42:48.812Z,92.70
2018-11-11T20:45:18.658Z,91.77
2018-11-11T20:47:47.858Z,91.38
2018-11-11T20:50:17.663Z,92.09
2018-11-11T20:52:47.711Z,91.19
2018-11-11T20:55:17.024Z,91.93
2018-11-11T20:57:45.476Z,92.76
2018-11-11T21:00:18.889Z,94.24
2018-11-11T21:02:47.381Z,93.37
2018-11-11T21:05:17.239Z,93.32
2018-11-11T21:07:45.932Z,94.00
2018-11-11T21:10:15.564Z,93.43
2018-11-11T21:12:44.148Z,93.67
2018-11-11T21:15:14.400Z,93.37
2018-11-11T21:17:43.364Z,94.43
2018-11-11T21:20:12.963Z,93.69
2018-11-11T21:22:41.742Z,93.47
2018-11-11T21:25:10.384Z,93.26
2018-11-11T21:27:39.558Z,94.38
2018-11-11T21:30:10.540Z,95.00
2018-11-11T21:32:39.008Z,94.80
2018-11-11T21:35:07.727Z,94.10
2018-11-11T21:37:36.293Z,94.19
2018-11-11T21:40:05.311Z,93.83
2018-11-11T21:42:34.571Z,93.21
2018-11-11T21:45:03.046Z,93.81
2018-11-11T21:47:31.524Z,94.06
2018-11-11T21:50:00.634Z,93.93
2018-11-11T21:52:29.116Z,94.27
2018-11-11T21:54:57.664Z,94.28
2018-11-11T21:57:26.224Z,94.82
2018-11-11T21:59:54.667Z,95.78
2018-11-11T22:02:23.247Z,96.14
2018-11-11T22:04:51.721Z,95.94
2018-11-11T22:07:20.151Z,95.93
2018-11-11T22:09:48.673Z,95.98
2018-11-11T22:12:17.164Z,95.82
2018-11-11T22:14:45.659Z,95.47
2018-11-11T22:17:14.144Z,95.88
2018-11-11T22:19:42.704Z,96.22
2018-11-11T22:22:11.194Z,96.19
2018-11-11T22:24:39.668Z,95.98
2018-11-11T22:27:08.162Z,95.96
2018-11-11T22:29:36.657Z,95.61
2018-11-11T22:32:05.451Z,96.00
2018-11-11T22:34:33.933Z,94.75
2018-11-11T22:37:02.441Z,95.01
2018-11-11T22:39:30.915Z,94.76
2018-11-11T22:41:59.359Z,95.58
2018-11-11T22:44:27.824Z,96.05
2018-11-11T22:46:56.672Z,96.40
2018-11-11T22:49:25.177Z,95.88
2018-11-11T22:51:53.598Z,96.38
2018-11-11T22:54:22.165Z,95.85
2018-11-11T22:56:51.140Z,95.97
2018-11-11T22:59:19.639Z,96.37
2018-11-11T23:01:48.101Z,96.59
2018-11-11T23:04:16.638Z,96.67
2018-11-11T23:06:46.541Z,96.65
2018-11-11T23:09:15.181Z,97.11
2018-11-11T23:11:43.721Z,96.96
2018-11-11T23:14:12.212Z,96.25
2018-11-11T23:16:40.828Z,96.78
2018-11-11T23:19:09.316Z,96.74
2018-11-11T23:21:37.830Z,96.58
2018-11-11T23:24:06.875Z,97.06
2018-11-11T23:26:37.658Z,97.06
2018-11-11T23:29:07.224Z,97.42
2018-11-11T23:31:35.672Z,97.63
2018-11-11T23:34:04.230Z,96.78
2018-11-11T23:36:34.099Z,96.75
2018-11-11T23:39:02.593Z,96.09
2018-11-11T23:41:31.513Z,95.71
2018-11-11T23:44:00.077Z,94.62
2018-11-11T23:46:28.491Z,95.70
2018-11-11T23:48:56.945Z,94.76
2018-11-11T23:51:25.442Z,95.64
2018-11-11T23:53:53.918Z,96.16
2018-11-11T23:56:22.389Z,95.51
2018-11-11T23:58:50.831Z,96.34
